May 23, 2022

Time Code Weather Temp. Visibility Clouds Wind METAR/SPECI
11:00 am
M
59 °F 6¼ mi+ 1,000 ft 260°   260° 10 kt METAR LFCR 230900Z AUTO 26010KT 9999 OVC010/// ///CB 15/14 Q1011 BECMG SCT018 BKN035
10:30 am
I
61 °F 6¼ mi+ 800 ft 230°   230° 10 kt METAR LFCR 230830Z AUTO 23010KT 9999 OVC008/// //////CB 16/14 Q1011 BECMG SCT018 BKN035
10:00 am
M
59 °F 6¼ mi+ 1,000 ft 260°   260° 8 kt METAR LFCR 230800Z AUTO 26008KT 9999 -RA BKN010/// OVC014/// //////CB 15/14 Q1010 TEMPO 4000 -RA BECMG SCT018 BKN035
9:30 am
I
61 °F 6¼ mi+ 900 ft 250°   250° 8 kt METAR LFCR 230730Z AUTO 25008KT 200V270 9999 BKN009/// BKN014/// OVC025/// //////CB 16/14 Q1011 TEMPO 4000 -RA BECMG SCT018 BKN035
9:00 am
I
61 °F 6¼ mi+ 700 ft 230°   230° 9 kt METAR LFCR 230700Z AUTO 23009KT 9999 BKN007/// BKN011/// OVC031/// //////CB 16/14 Q1010 TEMPO 4000 -RA SCT006 BKN020 BKN050CB
8:30 am
I
61 °F 6¼ mi+ 800 ft 250°   250° 12 kt METAR LFCR 230630Z AUTO 25012KT 9999 BKN008/// OVC013/// //////CB 16/14 Q1010 TEMPO 4000 -RA SCT006 BKN020 BKN050CB
8:00 am
M
61 °F 6¼ mi+ 1,000 ft 260°   260° 10 kt METAR LFCR 230600Z AUTO 26010KT 9999 BKN010/// OVC058/// //////CB 16/15 Q1010 TEMPO 4000 -RA SCT006 BKN020 BKN050CB
7:30 am
M
63 °F 6¼ mi+ 2,300 ft 230°   230° 8 kt METAR LFCR 230530Z AUTO 23008KT 9999 BKN023/// OVC058/// //////CB 17/14 Q1010 TEMPO 4000 SHRA BECMG BKN006 OVC012
7:00 am
V
61 °F 6¼ mi+ 14,000 ft 230°   230° 6 kt METAR LFCR 230500Z AUTO 23006KT 9999 FEW022 SCT080 BKN140 16/15 Q1010 TEMPO 4000 SHRA SCT020TCU
6:30 am
V
61 °F 6¼ mi+ - Var   Var 2 kt METAR LFCR 230430Z AUTO VRB02KT CAVOK 16/14 Q1009 TEMPO 4000 SHRA SCT020TCU BECMG 27012KT
6:00 am
V
63 °F 6¼ mi+ - 360°   360° 3 kt METAR LFCR 230400Z AUTO 36003KT 320V060 CAVOK 17/14 Q1009 TEMPO 4000 SHRA SCT020TCU
5:30 am
V
61 °F 6¼ mi+ - 290°   290° 5 kt METAR LFCR 230330Z AUTO 29005KT CAVOK 16/14 Q1010 TEMPO 4000 SHRA SCT020TCU
5:00 am
V
64 °F 6¼ mi+ - 280°   280° 7 kt METAR LFCR 230300Z AUTO 28007KT 240V300 9999 //////TCU 18/15 Q1010 TEMPO 4000 SHRA SCT050CB
4:30 am
V
66 °F 6¼ mi+ - 250°   250° 8 kt METAR LFCR 230230Z AUTO 25008KT CAVOK 19/14 Q1011 TEMPO 4000 SHRA SCT020TCU
4:00 am
V
68 °F 6¼ mi+ - 260°   260° 13 kt METAR LFCR 230200Z AUTO 26013KT CAVOK 20/14 Q1010 TEMPO 4000 SHRA SCT050CB BECMG 20010KT
3:30 am
V
70 °F 6¼ mi+ - 250°   250° 10 kt METAR LFCR 230130Z AUTO 25010KT CAVOK 21/13 Q1010 TEMPO 4000 SHRA SCT050CB
3:00 am
V
70 °F 6¼ mi+ - 250°   250° 9 kt METAR LFCR 230100Z AUTO 25009KT CAVOK 21/13 Q1010 TEMPO 4000 SHRA SCT050CB
2:30 am
V
70 °F 6¼ mi+ - 250°   250° 7 kt METAR LFCR 230030Z AUTO 25007KT 230V290 CAVOK 21/13 Q1010 TEMPO 4000 SHRA SCT050CB
2:00 am
V
70 °F 6¼ mi+ - Var   Var 2 kt METAR LFCR 230000Z AUTO VRB02KT CAVOK 21/14 Q1009 TEMPO 4000 SHRA SCT050CB
1:30 am
V
70 °F 6¼ mi+ - 280°   280° 5 kt METAR LFCR 222330Z AUTO 28005KT CAVOK 21/15 Q1010 TEMPO 4000 SHRA SCT050CB
1:00 am
V
72 °F 6¼ mi+ - 270°   270° 6 kt METAR LFCR 222300Z AUTO 27006KT 230V300 9999 //////TCU 22/15 Q1010 TEMPO 30020G35KT 4000 SHRA SCT050CB
12:30 am
V
73 °F 6¼ mi+ - 280°   280° 12 kt METAR LFCR 222230Z AUTO 28012KT 9999 ///TCU 23/16 Q1010 TEMPO 30020G35KT 4000 SHRA SCT050CB
12:00 am
V
75 °F 6¼ mi+ - 270°   270° 6 kt METAR LFCR 222200Z AUTO 27006KT 9999 //////CB 24/15 Q1010 TEMPO 30020G35KT 4000 TSRA

May 22, 2022

Time Code Weather Temp. Visibility Clouds Wind METAR/SPECI
11:30 pm
V
75 °F 6¼ mi+ - 300°   300° 8 kt METAR LFCR 222130Z AUTO 30008KT 270V340 9999 ///CB 24/15 Q1010 TEMPO 30020G35KT 4000 TSRA
11:00 pm
V
86 °F 6¼ mi+ - 220°   220° 16 36 kt METAR LFCR 222100Z AUTO 22016G36KT 170V310 9999 ///TCU 30/04 Q1009 TEMPO 4000 TSRA SCT030TCU SCT050CB
10:30 pm
V
77 °F 6¼ mi+ - 180°   180° 6 kt METAR LFCR 222030Z AUTO 18006KT 120V270 CAVOK 25/15 Q1009 TEMPO 30020G35KT 4000 TSRA SCT030TCU SCT050CB
10:00 pm
V
77 °F 6¼ mi+ - 130°   130° 6 kt METAR LFCR 222000Z AUTO 13006KT CAVOK 25/19 Q1009 TEMPO 30020G35KT 4000 TSRA SCT030TCU SCT050CB
9:30 pm
V
79 °F 6¼ mi+ - 170°   170° 10 kt METAR LFCR 221930Z AUTO 17010KT CAVOK 26/19 Q1009 TEMPO 30020G35KT 4000 TSRA SCT030TCU SCT050CB
9:00 pm
V
77 °F 6¼ mi+ - 150°   150° 7 kt METAR LFCR 221900Z AUTO 15007KT CAVOK 25/18 Q1009 TEMPO 30020G35KT 4000 TSRA SCT030TCU SCT050CB
8:30 pm
V
79 °F 6¼ mi+ - Var   Var 3 kt METAR LFCR 221830Z AUTO VRB03KT CAVOK 26/14 Q1010 TEMPO 30020G35KT 4000 TSRA SCT030TCU SCT050CB
8:00 pm
V
81 °F 6¼ mi+ - 210°   210° 4 kt METAR LFCR 221800Z AUTO 21004KT 170V260 CAVOK 27/14 Q1010 TEMPO 30020G35KT 4000 TSRA SCT030TCU SCT050CB
7:30 pm
V
81 °F 6¼ mi+ - 160°   160° 6 kt METAR LFCR 221730Z AUTO 16006KT CAVOK 27/16 Q1009 TEMPO 30020G35KT 4000 TSRA SCT030TCU SCT050CB
7:00 pm
V
82 °F 6¼ mi+ - Var   Var 2 kt METAR LFCR 221700Z AUTO VRB02KT CAVOK 28/13 Q1009 TEMPO 30020G35KT 4000 TSRA SCT030TCU SCT050CB
6:30 pm
V
82 °F 6¼ mi+ - 220°   220° 8 kt METAR LFCR 221630Z AUTO 22008KT CAVOK 28/17 Q1010 TEMPO 30020G35KT 4000 TSRA SCT030TCU SCT050CB
6:00 pm
V
84 °F 6¼ mi+ - 210°   210° 7 kt METAR LFCR 221600Z AUTO 21007KT 170V240 CAVOK 29/17 Q1011 TEMPO 30020G35KT 4000 TSRA SCT030TCU SCT050CB
5:30 pm
V
88 °F 6¼ mi+ - 200°   200° 7 kt METAR LFCR 221530Z AUTO 20007KT 160V220 CAVOK 31/15 Q1011 TEMPO 30020G35KT 4000 TSRA SCT030TCU SCT050CB
5:00 pm
V
88 °F 6¼ mi+ - 190°   190° 7 kt METAR LFCR 221500Z AUTO 19007KT CAVOK 31/14 Q1010 NOSIG
4:30 pm
V
88 °F 6¼ mi+ - 190°   190° 4 kt METAR LFCR 221430Z AUTO 19004KT 150V220 CAVOK 31/14 Q1011 NOSIG
4:00 pm
V
86 °F 6¼ mi+ - 230°   230° 8 kt METAR LFCR 221400Z AUTO 23008KT CAVOK 30/15 Q1011 NOSIG
3:30 pm
V
91 °F 6¼ mi+ - 210°   210° 6 kt METAR LFCR 221330Z AUTO 21006KT 150V230 CAVOK 33/15 Q1011 NOSIG
3:00 pm
V
90 °F 6¼ mi+ - 160°   160° 6 kt METAR LFCR 221300Z AUTO 16006KT 100V210 CAVOK 32/15 Q1011 NOSIG
2:30 pm
V
90 °F 6¼ mi+ - 170°   170° 5 kt METAR LFCR 221230Z AUTO 17005KT 120V220 CAVOK 32/15 Q1012 NOSIG
2:00 pm
V
88 °F 6¼ mi+ - Var   Var 6 kt METAR LFCR 221200Z AUTO VRB06KT CAVOK 31/16 Q1012 NOSIG
1:30 pm
V
86 °F 6¼ mi+ - 250°   250° 6 kt METAR LFCR 221130Z AUTO 25006KT 210V280 CAVOK 30/15 Q1012 NOSIG
1:00 pm
V
86 °F 6¼ mi+ - 220°   220° 6 kt METAR LFCR 221100Z AUTO 22006KT 160V260 CAVOK 30/14 Q1013 NOSIG
12:30 pm
V
84 °F 6¼ mi+ - 240°   240° 4 kt METAR LFCR 221030Z AUTO 24004KT 150V300 CAVOK 29/12 Q1013 NOSIG
12:00 pm
V
84 °F 6¼ mi+ - Var   Var 3 kt METAR LFCR 221000Z AUTO VRB03KT CAVOK 29/12 Q1013 NOSIG
11:30 am
V
82 °F 6¼ mi+ - Var   Var 2 kt METAR LFCR 220930Z AUTO VRB02KT CAVOK 28/10 Q1013 NOSIG
11:00 am
V
81 °F 6¼ mi+ - 080°   080° 5 kt METAR LFCR 220900Z AUTO 08005KT CAVOK 27/13 Q1013 NOSIG
10:30 am
V
77 °F 6¼ mi+ - Var   Var 2 kt METAR LFCR 220830Z AUTO VRB02KT CAVOK 25/15 Q1014 NOSIG
10:00 am
V
75 °F 6¼ mi+ - 330°   330° 3 kt METAR LFCR 220800Z AUTO 33003KT 300V010 CAVOK 24/16 Q1014 NOSIG
9:30 am
V
75 °F 6¼ mi+ - Var   Var 2 kt METAR LFCR 220730Z AUTO VRB02KT CAVOK 24/14 Q1014 NOSIG
9:00 am
V
32 °F 6¼ mi+ - Var   Var 3 kt METAR LFCR 220700Z AUTO VRB03KT CAVOK ///// Q1015 NOSIG
8:30 am
V
68 °F 6¼ mi+ - 130°   130° 5 kt METAR LFCR 220630Z AUTO 13005KT CAVOK 20/13 Q1015 NOSIG
8:00 am
V
64 °F 6¼ mi+ - 140°   140° 4 kt METAR LFCR 220600Z AUTO 14004KT CAVOK 18/14 Q1015 NOSIG
7:30 am
V
63 °F 6¼ mi+ - 150°   150° 3 kt METAR LFCR 220530Z AUTO 15003KT CAVOK 17/14 Q1015 NOSIG
7:00 am
V
61 °F 6¼ mi+ - 110°   110° 3 kt METAR LFCR 220500Z AUTO 11003KT CAVOK 16/14 Q1015 NOSIG
6:30 am
V
63 °F 6¼ mi+ - Var   Var 2 kt METAR LFCR 220430Z AUTO VRB02KT CAVOK 17/14 Q1015 NOSIG
6:00 am
V
64 °F 6¼ mi+ - 360°   360° 4 kt METAR LFCR 220400Z AUTO 36004KT CAVOK 18/14 Q1015 NOSIG
5:30 am
V
61 °F 6¼ mi+ - 280°   280° 2 kt METAR LFCR 220330Z AUTO 28002KT CAVOK 16/14 Q1015 NOSIG
5:00 am
V
61 °F 6¼ mi+ - 140°   140° 4 kt METAR LFCR 220300Z AUTO 14004KT CAVOK 16/14 Q1015 NOSIG
4:30 am
V
61 °F 6¼ mi+ - 150°   150° 3 kt METAR LFCR 220230Z AUTO 15003KT CAVOK 16/14 Q1015 NOSIG
4:00 am
V
61 °F 6¼ mi+ - 160°   160° 2 kt METAR LFCR 220200Z AUTO 16002KT CAVOK 16/14 Q1015 NOSIG
3:30 am
V
64 °F 6¼ mi+ - 130°   130° 1 kt METAR LFCR 220130Z AUTO 13001KT CAVOK 18/14 Q1015 NOSIG
3:00 am
V
64 °F 6¼ mi+ - Var   Var 2 kt METAR LFCR 220100Z AUTO VRB02KT CAVOK 18/15 Q1016 NOSIG
2:30 am
V
68 °F 6¼ mi+ - 090°   090° 6 kt METAR LFCR 220030Z AUTO 09006KT CAVOK 20/15 Q1016 NOSIG
2:00 am
V
68 °F 6¼ mi+ - 090°   090° 3 kt METAR LFCR 220000Z AUTO 09003KT CAVOK 20/16 Q1016 NOSIG
1:30 am
V
66 °F 6¼ mi+ - Var   Var 2 kt METAR LFCR 212330Z AUTO VRB02KT CAVOK 19/15 Q1017 NOSIG
1:00 am
V
66 °F 6¼ mi+ - 160°   160° 6 kt METAR LFCR 212300Z AUTO 16006KT CAVOK 19/15 Q1017 NOSIG
12:30 am
V
72 °F 6¼ mi+ - 110°   110° 5 kt METAR LFCR 212230Z AUTO 11005KT CAVOK 22/15 Q1017 NOSIG
12:00 am
V
72 °F 6¼ mi+ - 140°   140° 5 kt METAR LFCR 212200Z AUTO 14005KT CAVOK 22/16 Q1018 NOSIG

May 21, 2022

Time Code Weather Temp. Visibility Clouds Wind METAR/SPECI
11:30 pm
V
72 °F 6¼ mi+ - Var   Var 3 kt METAR LFCR 212130Z AUTO VRB03KT CAVOK 22/16 Q1018 NOSIG
11:00 pm
V
72 °F 6¼ mi+ - 140°   140° 5 kt METAR LFCR 212100Z AUTO 14005KT CAVOK 22/16 Q1018 NOSIG
10:30 pm
V
72 °F 6¼ mi+ - 150°   150° 4 kt METAR LFCR 212030Z AUTO 15004KT CAVOK 22/16 Q1018 NOSIG
10:00 pm
V
75 °F 6¼ mi+ - 140°   140° 6 kt METAR LFCR 212000Z AUTO 14006KT CAVOK 24/17 Q1018 NOSIG
9:30 pm
V
75 °F 6¼ mi+ - 170°   170° 3 kt METAR LFCR 211930Z AUTO 17003KT CAVOK 24/18 Q1018 NOSIG
9:00 pm
V
79 °F 6¼ mi+ - 150°   150° 2 kt METAR LFCR 211900Z AUTO 15002KT CAVOK 26/19 Q1018 TEMPO 28010KT
8:30 pm
V
81 °F 6¼ mi+ - 310°   310° 3 kt METAR LFCR 211830Z AUTO 31003KT CAVOK 27/18 Q1018 NOSIG
8:00 pm
V
82 °F 6¼ mi+ - 340°   340° 3 kt METAR LFCR 211800Z AUTO 34003KT CAVOK 28/19 Q1018 TEMPO 28010KT
7:30 pm
V
84 °F 6¼ mi+ - 300°   300° 7 kt METAR LFCR 211730Z AUTO 30007KT CAVOK 29/19 Q1018 NOSIG
7:00 pm
V
86 °F 6¼ mi+ - 300°   300° 8 kt METAR LFCR 211700Z AUTO 30008KT CAVOK 30/18 Q1018 NOSIG
6:30 pm
V
90 °F 6¼ mi+ - 250°   250° 8 kt METAR LFCR 211630Z AUTO 25008KT 220V280 CAVOK 32/15 Q1018 NOSIG
6:00 pm
V
91 °F 6¼ mi+ - 240°   240° 8 kt METAR LFCR 211600Z AUTO 24008KT 200V270 9999 // NSC 33/14 Q1018
5:30 pm
V
91 °F 6¼ mi+ - 220°   220° 5 kt METAR LFCR 211530Z AUTO 22005KT 170V260 9999 // NSC 33/12 Q1018
5:00 pm
V
91 °F 6¼ mi+ - 180°   180° 6 kt METAR LFCR 211500Z AUTO 18006KT 140V240 9999 // NSC 33/13 Q1018
4:30 pm
V
90 °F 6¼ mi+ - 340°   340° 7 kt METAR LFCR 211430Z AUTO 34007KT 300V020 9999 // NSC 32/16 Q1019
4:00 pm
V
91 °F 6¼ mi+ - Var   Var 3 kt METAR LFCR 211400Z AUTO VRB03KT CAVOK 33/17 Q1019 NOSIG
3:30 pm
V
88 °F 6¼ mi+ - 340°   340° 5 kt METAR LFCR 211330Z AUTO 34005KT 220V030 CAVOK 31/16 Q1019 NOSIG
3:00 pm
V
90 °F 6¼ mi+ - 180°   180° 4 kt METAR LFCR 211300Z AUTO 18004KT 140V240 9999 // NSC 32/16 Q1020
2:30 pm
V
88 °F 6¼ mi+ - 350°   350° 4 kt METAR LFCR 211230Z AUTO 35004KT 290V040 CAVOK 31/18 Q1020 NOSIG
2:00 pm
V
86 °F 6¼ mi+ - 340°   340° 7 kt METAR LFCR 211200Z AUTO 34007KT 310V010 CAVOK 30/17 Q1020 NOSIG
1:30 pm
V
84 °F 6¼ mi+ - 330°   330° 5 kt METAR LFCR 211130Z AUTO 33005KT 280V020 CAVOK 29/16 Q1021 NOSIG
1:00 pm
V
82 °F 6¼ mi+ - Var   Var 3 kt METAR LFCR 211100Z AUTO VRB03KT CAVOK 28/16 Q1021 NOSIG
12:30 pm
V
86 °F 6¼ mi+ - 120°   120° 6 kt METAR LFCR 211030Z AUTO 12006KT 080V170 CAVOK 30/14 Q1021 NOSIG
12:00 pm
V
82 °F 6¼ mi+ - 120°   120° 5 kt METAR LFCR 211000Z AUTO 12005KT 070V180 CAVOK 28/14 Q1021 NOSIG
11:30 am
V
81 °F 6¼ mi+ - 050°   050° 4 kt METAR LFCR 210930Z AUTO 05004KT 320V120 CAVOK 27/14 Q1021 NOSIG
11:00 am
V
79 °F 6¼ mi+ - 080°   080° 3 kt METAR LFCR 210900Z AUTO 08003KT 040V160 CAVOK 26/13 Q1022 NOSIG
Older data

Download our app

Easy access to all aviation weather on your mobile phone and tablet.
With many features not available on the website, like offline support and a personal airport list.

We and third parties follow your internet behavior on our website with cookies. If you continue, we assume you agree with our cookie policy. Learn more